Detall de PIREP

Printer-friendly versionPDF version

[2012/04/18 08:05:00]
Flight IATA:CT3219
Pilot Number:011
Company ICAO:CAT
Aircraft Type:B738/F
PAX:160
Departing Airport: EFHK
Destination Airport: LEPA
Alternate Airport:LEBL
Online: VATSIM
Route:DCT DOBAN UP739 MUSTI UP31 BALIT G805 KUNER UP31 VIBUG UM736 BZO UM984 DIVKO UN852 VERSO UL129 LUNIK
Flight Level:F330
No Slew and time accel
No pause
Crash detect
Detect pilot in Cockpit between each 30 and 45 minutes
08:05 Zero fuel Weight: 137990 Lbs, Fuel Weight: 34545 Lbs
08:05 VATSIM:EFHK 180720Z 23012KT 9999 -SN FEW017 BKN025 BKN045 02/M02 Q1001 NOSIG
08:05 VATSIM:LEPA 180730Z 24003KT 170V320 9999 FEW007 16/10 Q1006 NOSIG
08:05 Parking Brakes off
08:17 Take-off
08:17 Take off Weight: 171478 Lbs
08:17 Wind: 236º @ 012 Knots Heading: 228º
08:17 POS N60º 18´ 45´´ E024º 56´ 20´´
08:17 Flaps:5 at 205 Knots
08:17 Gear Up: 206 Knots
08:18 Flaps:4 at 238 Knots
08:18 Flaps:3 at 245 Knots
08:18 Flaps:2 at 246 Knots
08:18 Flaps:1 at 246 Knots
08:19 Flaps:0 at 246 Knots
08:32 Wind:246º@043 Knots Heading: 219º Ground Speed: 365 Knots Altitude 32467 ft
08:32 TOC
08:32 Fuel Weight: 30091 Lb
08:47 Wind:238º@042 Knots Heading: 217º Ground Speed: 423 Knots Altitude 33795 ft
09:02 Wind:230º@035 Knots Heading: 206º Ground Speed: 419 Knots Altitude 33841 ft
09:17 Wind:145º@033 Knots Heading: 214º Ground Speed: 441 Knots Altitude 33779 ft
09:32 Wind:149º@039 Knots Heading: 208º Ground Speed: 439 Knots Altitude 33697 ft
09:47 Wind:145º@042 Knots Heading: 207º Ground Speed: 441 Knots Altitude 33658 ft
10:02 Wind:131º@026 Knots Heading: 186º Ground Speed: 443 Knots Altitude 33618 ft
10:17 Wind:238º@011 Knots Heading: 209º Ground Speed: 451 Knots Altitude 33625 ft
10:32 Wind:163º@010 Knots Heading: 206º Ground Speed: 456 Knots Altitude 33608 ft
10:47 Wind:118º@044 Knots Heading: 227º Ground Speed: 478 Knots Altitude 33582 ft
11:02 Wind:333º@015 Knots Heading: 215º Ground Speed: 477 Knots Altitude 33553 ft
11:17 Wind:271º@046 Knots Heading: 249º Ground Speed: 419 Knots Altitude 33638 ft
11:32 Wind:262º@029 Knots Heading: 211º Ground Speed: 444 Knots Altitude 33700 ft
11:41 TOD
11:41 Fuel Weight: 13031 Lb
11:47 Wind:277º@033 Knots Heading: 205º Ground Speed: 423 Knots Altitude 24865 ft
11:59 Flaps:1 at 240 Knots
11:59 Flaps:2 at 239 Knots
11:59 Flaps:3 at 228 Knots
12:02 Wind:329º@025 Knots Heading: 057º Ground Speed: 221 Knots Altitude 4524 ft
12:02 Flaps:4 at 204 Knots
12:03 Flaps:5 at 181 Knots
12:03 Flaps:6 at 178 Knots
12:04 Gear Down: 181 Knots
12:06 Flaps:7 at 150 Knots
12:07 Flaps:6 at 145 Knots
12:07 Flaps:7 at 144 Knots
12:07 Flaps:8 at 144 Knots
12:11 TouchDown:Rate -296 ft/min Speed: 130 Knots
12:12 VATSIM:LEPA 181200Z 32014KT 280V350 9999 FEW033 SCT060 18/06 Q1006 NOSIG
12:12 Land
12:12 Wind:322º@014 Knots
12:12 Heading: 240º
12:12 Flight Duration: 03:55
12:12 Landing Weight: 148823 Lbs
12:12 POS N39º 33´ 14´´ E002º 43´ 31´´
12:14 Parking brakes on
12:14 Block to Block Duration: 04:09
12:14 Final Fuel: 10612 Lbls
12:14 Spent Fuel: 23933 Lbls
12:14 Flight Length: 1297 NM
12:14 TOD Land Length: 50 NM

Exportar CSV

Powered by Drupal - Modified by Danger4k